createdAt,value
2018-03-04T00:00:53.197Z,17.07
2018-03-04T00:01:53.202Z,17.06
2018-03-04T00:02:53.207Z,17.06
2018-03-04T00:03:53.198Z,17.04
2018-03-04T00:04:53.203Z,17.03
2018-03-04T00:05:53.201Z,17.02
2018-03-04T00:06:53.177Z,17.01
2018-03-04T00:07:53.182Z,17.03
2018-03-04T00:08:53.189Z,17.04
2018-03-04T00:09:53.221Z,17.04
2018-03-04T00:10:53.202Z,17.06
2018-03-04T00:11:53.226Z,17.04
2018-03-04T00:12:53.189Z,17.02
2018-03-04T00:13:53.192Z,17.02
2018-03-04T00:14:53.198Z,17.03
2018-03-04T00:15:53.195Z,17.01
2018-03-04T00:16:53.211Z,17
2018-03-04T00:17:53.194Z,16.99
2018-03-04T00:18:53.188Z,17.01
2018-03-04T00:19:53.195Z,17
2018-03-04T00:20:53.189Z,16.98
2018-03-04T00:21:53.188Z,16.97
2018-03-04T00:22:53.175Z,16.97
2018-03-04T00:23:53.202Z,16.96
2018-03-04T00:24:53.184Z,16.98
2018-03-04T00:25:53.183Z,16.96
2018-03-04T00:26:53.184Z,16.97
2018-03-04T00:27:53.219Z,16.99
2018-03-04T00:28:53.193Z,16.97
2018-03-04T00:29:53.176Z,16.97
2018-03-04T00:30:53.176Z,16.98
2018-03-04T00:31:53.171Z,16.96
2018-03-04T00:32:53.193Z,16.94
2018-03-04T00:33:53.180Z,16.96
2018-03-04T00:34:53.190Z,16.97
2018-03-04T00:35:53.187Z,16.95
2018-03-04T00:36:53.174Z,16.93
2018-03-04T00:37:53.159Z,16.94
2018-03-04T00:38:53.196Z,16.91
2018-03-04T00:39:53.190Z,16.94
2018-03-04T00:40:53.178Z,16.92
2018-03-04T00:41:53.176Z,16.9
2018-03-04T00:42:53.166Z,16.91
2018-03-04T00:43:53.203Z,16.91
2018-03-04T00:44:53.183Z,16.92
2018-03-04T00:45:53.167Z,16.9
2018-03-04T00:46:53.196Z,16.92
2018-03-04T00:47:53.171Z,16.94
2018-03-04T00:48:53.180Z,16.91
2018-03-04T00:49:53.182Z,16.92
2018-03-04T00:50:53.174Z,16.92
2018-03-04T00:51:53.180Z,16.89
2018-03-04T00:52:53.172Z,16.88
2018-03-04T00:53:53.168Z,16.86
2018-03-04T00:54:53.177Z,16.87
2018-03-04T00:55:53.179Z,16.88
2018-03-04T00:56:53.175Z,16.86
2018-03-04T00:57:53.192Z,16.84
2018-03-04T00:58:53.180Z,16.86
2018-03-04T00:59:53.164Z,16.84
2018-03-04T01:00:53.174Z,16.84
2018-03-04T01:01:53.189Z,16.84
2018-03-04T01:02:53.173Z,16.83
2018-03-04T01:03:53.187Z,16.83
2018-03-04T01:04:53.155Z,16.86
2018-03-04T01:05:53.174Z,16.84
2018-03-04T01:06:53.168Z,16.84
2018-03-04T01:07:53.289Z,16.85
2018-03-04T01:08:53.153Z,16.84
2018-03-04T01:09:53.165Z,16.84
2018-03-04T01:10:53.176Z,16.82
2018-03-04T01:11:53.164Z,16.83
2018-03-04T01:12:53.202Z,16.83
2018-03-04T01:13:53.176Z,16.81
2018-03-04T01:14:53.158Z,16.78
2018-03-04T01:15:53.160Z,16.8
2018-03-04T01:16:53.159Z,16.79
2018-03-04T01:17:53.164Z,16.79
2018-03-04T01:18:53.188Z,16.78
2018-03-04T01:19:53.189Z,16.78
2018-03-04T01:20:53.171Z,16.77
2018-03-04T01:21:53.151Z,16.76
2018-03-04T01:22:53.198Z,16.77
2018-03-04T01:23:53.188Z,16.74
2018-03-04T01:24:53.215Z,16.73
2018-03-04T01:25:53.249Z,16.73
2018-03-04T01:26:53.179Z,16.73
2018-03-04T01:27:53.172Z,16.78
2018-03-04T01:28:53.160Z,16.75
2018-03-04T01:29:53.162Z,16.77
2018-03-04T01:30:53.154Z,16.78
2018-03-04T01:31:53.167Z,16.77
2018-03-04T01:32:53.155Z,16.78
2018-03-04T01:33:53.169Z,16.74
2018-03-04T01:34:53.155Z,16.75
2018-03-04T01:35:53.169Z,16.77
2018-03-04T01:36:53.165Z,16.75
2018-03-04T01:37:53.159Z,16.75
2018-03-04T01:38:53.174Z,16.74
2018-03-04T01:39:53.168Z,16.73
2018-03-04T01:40:53.151Z,16.72
2018-03-04T01:41:53.175Z,16.72
2018-03-04T01:42:53.161Z,16.71
2018-03-04T01:43:53.157Z,16.72
2018-03-04T01:44:53.212Z,16.7
2018-03-04T01:45:53.161Z,16.71
2018-03-04T01:46:53.158Z,16.72
2018-03-04T01:47:53.155Z,16.71
2018-03-04T01:48:53.157Z,16.71
2018-03-04T01:49:53.162Z,16.7
2018-03-04T01:50:53.167Z,16.73
2018-03-04T01:51:53.172Z,16.71
2018-03-04T01:52:53.175Z,16.7
2018-03-04T01:53:53.154Z,16.7
2018-03-04T01:54:53.154Z,16.69
2018-03-04T01:55:53.154Z,16.68
2018-03-04T01:56:53.177Z,16.64
2018-03-04T01:57:53.176Z,16.67
2018-03-04T01:58:53.248Z,16.66
2018-03-04T01:59:53.154Z,16.65
2018-03-04T02:00:53.151Z,16.67
2018-03-04T02:01:53.139Z,16.67
2018-03-04T02:02:53.180Z,16.65
2018-03-04T02:03:53.154Z,16.64
2018-03-04T02:04:53.146Z,16.66
2018-03-04T02:05:53.143Z,16.63
2018-03-04T02:06:53.152Z,16.6
2018-03-04T02:07:53.422Z,16.6
2018-03-04T02:08:53.157Z,16.61
2018-03-04T02:09:53.142Z,16.61
2018-03-04T02:10:53.150Z,16.6
2018-03-04T02:11:53.144Z,16.58
2018-03-04T02:12:53.172Z,16.58
2018-03-04T02:13:53.146Z,16.59
2018-03-04T02:14:53.157Z,16.58
2018-03-04T02:15:53.146Z,16.58
2018-03-04T02:16:53.181Z,16.54
2018-03-04T02:17:53.176Z,16.56
2018-03-04T02:18:53.140Z,16.57
2018-03-04T02:19:53.131Z,16.56
2018-03-04T02:20:53.174Z,16.56
2018-03-04T02:21:53.144Z,16.56
2018-03-04T02:22:53.415Z,16.57
2018-03-04T02:23:53.134Z,16.54
2018-03-04T02:24:53.138Z,16.55
2018-03-04T02:25:53.146Z,16.55
2018-03-04T02:26:53.153Z,16.56
2018-03-04T02:27:53.153Z,16.53
2018-03-04T02:28:53.148Z,16.55
2018-03-04T02:29:53.148Z,16.54
2018-03-04T02:30:53.175Z,16.53
2018-03-04T02:31:53.152Z,16.55
2018-03-04T02:32:53.167Z,16.53
2018-03-04T02:33:53.154Z,16.53
2018-03-04T02:34:53.154Z,16.51
2018-03-04T02:35:53.134Z,16.51
2018-03-04T02:36:53.134Z,16.49
2018-03-04T02:37:53.140Z,16.5
2018-03-04T02:38:53.141Z,16.48
2018-03-04T02:39:53.130Z,16.49
2018-03-04T02:40:53.136Z,16.47
2018-03-04T02:41:53.136Z,16.47
2018-03-04T02:42:53.136Z,16.48
2018-03-04T02:43:53.139Z,16.49
2018-03-04T02:44:53.142Z,16.47
2018-03-04T02:45:53.154Z,16.47
2018-03-04T02:46:53.136Z,16.48
2018-03-04T02:47:53.147Z,16.45
2018-03-04T02:48:53.138Z,16.46
2018-03-04T02:49:53.133Z,16.46
2018-03-04T02:50:53.147Z,16.45
2018-03-04T02:51:53.139Z,16.46
2018-03-04T02:52:53.131Z,16.46
2018-03-04T02:53:53.123Z,16.44
2018-03-04T02:54:53.130Z,16.42
2018-03-04T02:55:53.154Z,16.43
2018-03-04T02:56:53.143Z,16.42
2018-03-04T02:57:53.134Z,16.44
2018-03-04T02:58:53.132Z,16.43
2018-03-04T02:59:53.162Z,16.43
2018-03-04T03:00:53.153Z,16.43
2018-03-04T03:01:53.151Z,16.42
2018-03-04T03:02:53.140Z,16.41
2018-03-04T03:03:53.120Z,16.43
2018-03-04T03:04:53.115Z,16.41
2018-03-04T03:05:53.130Z,16.42
2018-03-04T03:06:53.159Z,16.41
2018-03-04T03:07:53.394Z,16.4
2018-03-04T03:08:53.127Z,16.43
2018-03-04T03:09:53.130Z,16.42
2018-03-04T03:10:53.135Z,16.4
2018-03-04T03:11:53.127Z,16.4
2018-03-04T03:12:53.154Z,16.4
2018-03-04T03:13:53.130Z,16.39
2018-03-04T03:14:53.125Z,16.4
2018-03-04T03:15:53.399Z,16.38
2018-03-04T03:16:53.123Z,16.38
2018-03-04T03:17:53.138Z,16.38
2018-03-04T03:18:53.129Z,16.36
2018-03-04T03:19:53.122Z,16.37
2018-03-04T03:20:53.157Z,16.39
2018-03-04T03:21:53.124Z,16.36
2018-03-04T03:22:53.131Z,16.37
2018-03-04T03:23:53.147Z,16.35
2018-03-04T03:24:53.115Z,16.35
2018-03-04T03:25:53.197Z,16.35
2018-03-04T03:26:53.252Z,16.34
2018-03-04T03:27:53.117Z,16.34
2018-03-04T03:28:53.105Z,16.34
2018-03-04T03:29:53.112Z,16.32
2018-03-04T03:30:53.177Z,16.33
2018-03-04T03:31:53.128Z,16.32
2018-03-04T03:32:53.130Z,16.32
2018-03-04T03:33:53.106Z,16.29
2018-03-04T03:34:53.449Z,16.33
2018-03-04T03:35:53.112Z,16.3
2018-03-04T03:36:53.131Z,16.32
2018-03-04T03:37:53.118Z,16.33
2018-03-04T03:38:53.114Z,16.31
2018-03-04T03:39:53.114Z,16.31
2018-03-04T03:40:53.118Z,16.29
2018-03-04T03:41:53.390Z,16.3
2018-03-04T03:42:53.121Z,16.3
2018-03-04T03:43:53.115Z,16.28
2018-03-04T03:44:53.129Z,16.27
2018-03-04T03:45:53.113Z,16.28
2018-03-04T03:46:53.282Z,16.31
2018-03-04T03:47:53.095Z,16.29
2018-03-04T03:48:53.111Z,16.29
2018-03-04T03:49:53.115Z,16.29
2018-03-04T03:50:53.117Z,16.28
2018-03-04T03:51:53.133Z,16.28
2018-03-04T03:52:53.121Z,16.26
2018-03-04T03:53:53.113Z,16.27
2018-03-04T03:54:53.094Z,16.28
2018-03-04T03:55:53.112Z,16.27
2018-03-04T03:56:53.141Z,16.26
2018-03-04T03:57:53.116Z,16.25
2018-03-04T03:58:53.109Z,16.26
2018-03-04T03:59:53.116Z,16.25
2018-03-04T04:00:53.108Z,16.24
2018-03-04T04:01:53.163Z,16.24
2018-03-04T04:02:53.131Z,16.24
2018-03-04T04:03:53.117Z,16.24
2018-03-04T04:04:53.124Z,16.24
2018-03-04T04:05:53.117Z,16.24
2018-03-04T04:06:53.102Z,16.23
2018-03-04T04:07:53.126Z,16.24
2018-03-04T04:08:53.104Z,16.23
2018-03-04T04:09:53.107Z,16.23
2018-03-04T04:10:53.142Z,16.23
2018-03-04T04:11:53.091Z,16.21
2018-03-04T04:12:57.204Z,16.22
2018-03-04T04:13:53.107Z,16.23
2018-03-04T04:14:53.103Z,16.23
2018-03-04T04:15:53.121Z,16.22
2018-03-04T04:16:53.108Z,16.21
2018-03-04T04:17:53.111Z,16.21
2018-03-04T04:18:53.107Z,16.2
2018-03-04T04:19:53.109Z,16.21
2018-03-04T04:20:53.119Z,16.2
2018-03-04T04:21:53.115Z,16.21
2018-03-04T04:22:53.099Z,16.21
2018-03-04T04:23:53.104Z,16.19
2018-03-04T04:24:53.092Z,16.2
2018-03-04T04:25:53.136Z,16.19
2018-03-04T04:26:53.110Z,16.2
2018-03-04T04:27:53.098Z,16.17
2018-03-04T04:28:53.103Z,16.18
2018-03-04T04:29:53.108Z,16.16
2018-03-04T04:30:53.113Z,16.17
2018-03-04T04:31:53.092Z,16.18
2018-03-04T04:32:53.110Z,16.17
2018-03-04T04:33:53.091Z,16.16
2018-03-04T04:34:53.106Z,16.16
2018-03-04T04:35:53.116Z,16.16
2018-03-04T04:36:53.099Z,16.16
2018-03-04T04:37:53.097Z,16.16
2018-03-04T04:38:53.112Z,16.15
2018-03-04T04:39:53.093Z,16.17
2018-03-04T04:40:53.091Z,16.16
2018-03-04T04:41:53.092Z,16.18
2018-03-04T04:42:53.102Z,16.16
2018-03-04T04:43:53.099Z,16.15
2018-03-04T04:44:53.091Z,16.15
2018-03-04T04:45:53.090Z,16.15
2018-03-04T04:46:53.101Z,16.14
2018-03-04T04:47:53.078Z,16.13
2018-03-04T04:48:53.095Z,16.13
2018-03-04T04:49:53.086Z,16.13
2018-03-04T04:50:53.093Z,16.13
2018-03-04T04:51:53.079Z,16.13
2018-03-04T04:52:53.105Z,16.13
2018-03-04T04:53:53.108Z,16.13
2018-03-04T04:54:53.081Z,16.15
2018-03-04T04:55:53.094Z,16.16
2018-03-04T04:56:53.095Z,16.16
2018-03-04T04:57:53.085Z,16.16
2018-03-04T04:58:53.095Z,16.19
2018-03-04T04:59:53.079Z,16.18
2018-03-04T05:00:53.091Z,16.19
2018-03-04T05:01:53.098Z,16.19
2018-03-04T05:02:53.116Z,16.19
2018-03-04T05:03:53.102Z,16.19
2018-03-04T05:04:53.095Z,16.19
2018-03-04T05:05:53.102Z,16.2
2018-03-04T05:06:53.083Z,16.21
2018-03-04T05:07:53.072Z,16.21
2018-03-04T05:08:53.074Z,16.2
2018-03-04T05:09:53.090Z,16.22
2018-03-04T05:10:53.090Z,16.22
2018-03-04T05:11:53.083Z,16.22
2018-03-04T05:12:53.111Z,16.24
2018-03-04T05:13:53.074Z,16.25
2018-03-04T05:14:53.074Z,16.25
2018-03-04T05:15:53.082Z,16.27
2018-03-04T05:16:53.082Z,16.27
2018-03-04T05:17:53.105Z,16.27
2018-03-04T05:18:53.084Z,16.28
2018-03-04T05:19:53.085Z,16.3
2018-03-04T05:20:53.114Z,16.31
2018-03-04T05:21:53.084Z,16.31
2018-03-04T05:22:53.090Z,16.33
2018-03-04T05:23:53.071Z,16.34
2018-03-04T05:24:53.077Z,16.36
2018-03-04T05:25:53.106Z,16.37
2018-03-04T05:26:53.182Z,16.38
2018-03-04T05:27:53.169Z,16.39
2018-03-04T05:28:53.078Z,16.39
2018-03-04T05:29:53.083Z,16.42
2018-03-04T05:30:53.398Z,16.44
2018-03-04T05:31:53.085Z,16.45
2018-03-04T05:32:53.084Z,16.47
2018-03-04T05:33:53.065Z,16.49
2018-03-04T05:34:53.071Z,16.51
2018-03-04T05:35:53.099Z,16.53
2018-03-04T05:36:53.077Z,16.54
2018-03-04T05:37:53.081Z,16.57
2018-03-04T05:38:53.068Z,16.57
2018-03-04T05:39:53.058Z,16.6
2018-03-04T05:40:53.072Z,16.61
2018-03-04T05:41:53.105Z,16.63
2018-03-04T05:42:53.084Z,16.66
2018-03-04T05:43:53.070Z,16.68
2018-03-04T05:44:53.078Z,16.69
2018-03-04T05:45:53.079Z,16.7
2018-03-04T05:46:53.099Z,16.73
2018-03-04T05:47:53.070Z,16.74
2018-03-04T05:48:53.067Z,16.76
2018-03-04T05:49:53.063Z,16.76
2018-03-04T05:50:53.069Z,16.79
2018-03-04T05:51:53.101Z,16.8
2018-03-04T05:52:53.067Z,16.82
2018-03-04T05:53:53.073Z,16.82
2018-03-04T05:54:53.074Z,16.84
2018-03-04T05:55:53.062Z,16.85
2018-03-04T05:56:53.339Z,16.87
2018-03-04T05:57:53.068Z,16.9
2018-03-04T05:58:53.069Z,16.9
2018-03-04T05:59:53.062Z,16.91
2018-03-04T06:00:53.068Z,16.94
2018-03-04T06:01:53.088Z,16.96
2018-03-04T06:02:53.092Z,16.97
2018-03-04T06:03:53.081Z,16.97
2018-03-04T06:04:53.065Z,16.99
2018-03-04T06:05:53.058Z,17
2018-03-04T06:06:53.089Z,17.02
2018-03-04T06:07:53.083Z,17.03
2018-03-04T06:08:53.083Z,17.04
2018-03-04T06:09:53.055Z,17.05
2018-03-04T06:10:53.085Z,17.07
2018-03-04T06:11:53.077Z,17.07
2018-03-04T06:12:53.062Z,17.08
2018-03-04T06:13:53.065Z,17.1
2018-03-04T06:14:53.051Z,17.11
2018-03-04T06:15:53.057Z,17.12
2018-03-04T06:16:53.323Z,17.13
2018-03-04T06:17:53.060Z,17.14
2018-03-04T06:18:53.049Z,17.15
2018-03-04T06:19:53.067Z,17.16
2018-03-04T06:20:53.065Z,17.17
2018-03-04T06:21:53.070Z,17.18
2018-03-04T06:22:53.060Z,17.19
2018-03-04T06:23:53.052Z,17.2
2018-03-04T06:24:53.050Z,17.21
2018-03-04T06:25:53.079Z,17.22
2018-03-04T06:26:53.061Z,17.22
2018-03-04T06:27:53.049Z,17.23
2018-03-04T06:28:53.047Z,17.24
2018-03-04T06:29:53.049Z,17.26
2018-03-04T06:30:53.333Z,17.25
2018-03-04T06:31:53.053Z,17.27
2018-03-04T06:32:53.053Z,17.28
2018-03-04T06:33:53.053Z,17.29
2018-03-04T06:34:53.059Z,17.3
2018-03-04T06:35:53.076Z,17.31
2018-03-04T06:36:53.054Z,17.31
2018-03-04T06:37:53.045Z,17.32
2018-03-04T06:38:53.038Z,17.34
2018-03-04T06:39:53.050Z,17.35
2018-03-04T06:40:53.051Z,17.36
2018-03-04T06:41:53.050Z,17.36
2018-03-04T06:42:53.056Z,17.36
2018-03-04T06:43:53.039Z,17.37
2018-03-04T06:44:53.094Z,17.37
2018-03-04T06:45:53.101Z,17.39
2018-03-04T06:46:53.049Z,17.4
2018-03-04T06:47:53.068Z,17.4
2018-03-04T06:48:53.057Z,17.42
2018-03-04T06:49:53.070Z,17.42
2018-03-04T06:50:53.052Z,17.43
2018-03-04T06:51:53.043Z,17.44
2018-03-04T06:52:53.055Z,17.45
2018-03-04T06:53:53.048Z,17.45
2018-03-04T06:54:53.047Z,17.47
2018-03-04T06:55:53.050Z,17.47
2018-03-04T06:56:53.072Z,17.47
2018-03-04T06:57:53.090Z,17.47
2018-03-04T06:58:53.055Z,17.5
2018-03-04T06:59:53.062Z,17.5
2018-03-04T07:00:53.039Z,17.5
2018-03-04T07:01:53.034Z,17.51
2018-03-04T07:02:53.058Z,17.51
2018-03-04T07:03:53.043Z,17.53
2018-03-04T07:04:53.071Z,17.52
2018-03-04T07:05:53.046Z,17.54
2018-03-04T07:06:53.033Z,17.56
2018-03-04T07:07:53.053Z,17.55
2018-03-04T07:08:53.083Z,17.56
2018-03-04T07:09:53.065Z,17.58
2018-03-04T07:10:53.035Z,17.58
2018-03-04T07:11:53.040Z,17.59
2018-03-04T07:12:53.039Z,17.6
2018-03-04T07:13:53.055Z,17.61
2018-03-04T07:14:53.045Z,17.61
2018-03-04T07:15:53.060Z,17.62
2018-03-04T07:16:53.046Z,17.62
2018-03-04T07:17:53.049Z,17.62
2018-03-04T07:18:53.048Z,17.62
2018-03-04T07:19:53.065Z,17.63
2018-03-04T07:20:53.023Z,17.63
2018-03-04T07:21:53.026Z,17.66
2018-03-04T07:22:53.037Z,17.66
2018-03-04T07:23:53.034Z,17.66
2018-03-04T07:24:53.074Z,17.67
2018-03-04T07:25:53.042Z,17.69
2018-03-04T07:26:53.086Z,17.69
2018-03-04T07:27:53.133Z,17.69
2018-03-04T07:28:53.138Z,17.69
2018-03-04T07:29:53.315Z,17.7
2018-03-04T07:30:53.037Z,17.7
2018-03-04T07:31:53.034Z,17.72
2018-03-04T07:32:53.044Z,17.72
2018-03-04T07:33:53.039Z,17.72
2018-03-04T07:34:53.064Z,17.75
2018-03-04T07:35:53.040Z,17.74
2018-03-04T07:36:53.039Z,17.75
2018-03-04T07:37:53.031Z,17.75
2018-03-04T07:38:53.058Z,17.76
2018-03-04T07:39:53.302Z,17.75
2018-03-04T07:40:53.040Z,17.76
2018-03-04T07:41:53.028Z,17.77
2018-03-04T07:42:53.032Z,17.77
2018-03-04T07:43:53.033Z,17.79
2018-03-04T07:44:53.067Z,17.79
2018-03-04T07:45:53.033Z,17.78
2018-03-04T07:46:53.027Z,17.79
2018-03-04T07:47:53.034Z,17.78
2018-03-04T07:48:53.045Z,17.79
2018-03-04T07:49:53.058Z,17.81
2018-03-04T07:50:53.035Z,17.81
2018-03-04T07:51:53.025Z,17.82
2018-03-04T07:52:53.033Z,17.81
2018-03-04T07:53:53.030Z,17.82
2018-03-04T07:54:53.041Z,17.84
2018-03-04T07:55:53.016Z,17.83
2018-03-04T07:56:53.042Z,17.84
2018-03-04T07:57:53.040Z,17.84
2018-03-04T07:58:53.012Z,17.85
2018-03-04T07:59:53.044Z,17.85
2018-03-04T08:00:53.014Z,17.86
2018-03-04T08:01:53.040Z,17.85
2018-03-04T08:02:53.036Z,17.86
2018-03-04T08:03:53.033Z,17.86
2018-03-04T08:04:53.045Z,17.88
2018-03-04T08:05:53.032Z,17.88
2018-03-04T08:06:53.019Z,17.88
2018-03-04T08:07:53.029Z,17.9
2018-03-04T08:08:53.023Z,17.89
2018-03-04T08:09:53.051Z,17.92
2018-03-04T08:10:53.020Z,17.92
2018-03-04T08:11:53.036Z,17.92
2018-03-04T08:12:53.032Z,17.92
2018-03-04T08:13:53.019Z,17.92
2018-03-04T08:14:53.013Z,17.93
2018-03-04T08:15:53.010Z,17.94
2018-03-04T08:16:53.021Z,17.94
2018-03-04T08:17:53.025Z,17.95
2018-03-04T08:18:53.030Z,17.96
2018-03-04T08:19:53.019Z,17.96
2018-03-04T08:20:53.011Z,17.97
2018-03-04T08:21:53.036Z,17.97
2018-03-04T08:22:53.032Z,17.98
2018-03-04T08:23:53.044Z,17.99
2018-03-04T08:24:53.012Z,17.98
2018-03-04T08:25:53.012Z,17.98
2018-03-04T08:26:53.007Z,17.98
2018-03-04T08:27:53.016Z,17.99
2018-03-04T08:28:53.039Z,18.01
2018-03-04T08:29:53.011Z,17.99
2018-03-04T08:30:53.016Z,18
2018-03-04T08:31:53.037Z,18.01
2018-03-04T08:32:53.012Z,18
2018-03-04T08:33:53.287Z,18
2018-03-04T08:34:53.011Z,18
2018-03-04T08:35:53.017Z,18
2018-03-04T08:36:53.021Z,18
2018-03-04T08:37:53.011Z,18.01
2018-03-04T08:38:53.030Z,18
2018-03-04T08:39:53.008Z,18
2018-03-04T08:40:53.008Z,18
2018-03-04T08:41:53.007Z,18
2018-03-04T08:42:53.012Z,18
2018-03-04T08:43:53.029Z,18
2018-03-04T08:44:53.010Z,18
2018-03-04T08:45:53.016Z,18
2018-03-04T08:46:53.010Z,18
2018-03-04T08:47:53.076Z,18
2018-03-04T08:48:52.995Z,18
2018-03-04T08:49:53.026Z,18.01
2018-03-04T08:50:53.038Z,18.01
2018-03-04T08:51:53.015Z,18.01
2018-03-04T08:52:53.008Z,18.01
2018-03-04T08:53:53.022Z,18.02
2018-03-04T08:54:53.005Z,18.02
2018-03-04T08:55:53.005Z,18.02
2018-03-04T08:56:53.005Z,18.03
2018-03-04T08:57:53.046Z,18.03
2018-03-04T08:58:52.999Z,18.03
2018-03-04T08:59:53.008Z,18.02
2018-03-04T09:00:53.004Z,18.03
2018-03-04T09:01:53.009Z,18.05
2018-03-04T09:02:53.023Z,18.03
2018-03-04T09:03:53.034Z,18.04
2018-03-04T09:04:53.011Z,18.05
2018-03-04T09:05:53.006Z,18.06
2018-03-04T09:06:53.000Z,18.05
2018-03-04T09:07:52.989Z,18.06
2018-03-04T09:08:53.011Z,18.07
2018-03-04T09:09:53.001Z,18.07
2018-03-04T09:10:53.017Z,18.08
2018-03-04T09:11:53.004Z,18.09
2018-03-04T09:12:52.993Z,18.08
2018-03-04T09:13:52.989Z,18.08
2018-03-04T09:14:53.264Z,18.08
2018-03-04T09:15:53.007Z,18.1
2018-03-04T09:16:53.011Z,18.09
2018-03-04T09:17:52.989Z,18.1
2018-03-04T09:18:52.983Z,18.11
2018-03-04T09:19:53.082Z,18.11
2018-03-04T09:20:53.260Z,18.12
2018-03-04T09:21:52.998Z,18.11
2018-03-04T09:22:52.984Z,18.13
2018-03-04T09:23:52.989Z,18.12
2018-03-04T09:24:53.014Z,18.14
2018-03-04T09:25:53.273Z,18.14
2018-03-04T09:26:52.990Z,18.15
2018-03-04T09:27:52.989Z,18.15
2018-03-04T09:28:53.089Z,18.14
2018-03-04T09:29:53.086Z,18.16
2018-03-04T09:30:53.013Z,18.15
2018-03-04T09:31:52.997Z,18.15
2018-03-04T09:32:52.985Z,18.16
2018-03-04T09:33:52.991Z,18.16
2018-03-04T09:34:52.980Z,18.16
2018-03-04T09:35:53.015Z,18.16
2018-03-04T09:36:52.994Z,18.16
2018-03-04T09:37:52.968Z,18.16
2018-03-04T09:38:52.982Z,18.17
2018-03-04T09:39:53.007Z,18.17
2018-03-04T09:40:52.992Z,18.17
2018-03-04T09:41:53.005Z,18.18
2018-03-04T09:42:52.992Z,18.19
2018-03-04T09:43:52.982Z,18.19
2018-03-04T09:44:52.980Z,18.19
2018-03-04T09:45:53.023Z,18.2
2018-03-04T09:46:53.008Z,18.2
2018-03-04T09:47:53.019Z,18.2
2018-03-04T09:48:52.997Z,18.22
2018-03-04T09:49:52.996Z,18.21
2018-03-04T09:50:52.991Z,18.21
2018-03-04T09:51:52.995Z,18.22
2018-03-04T09:52:53.028Z,18.23
2018-03-04T09:53:52.998Z,18.23
2018-03-04T09:54:52.975Z,18.23
2018-03-04T09:55:52.983Z,18.25
2018-03-04T09:56:52.983Z,18.23
2018-03-04T09:57:53.038Z,18.23
2018-03-04T09:58:53.000Z,18.25
2018-03-04T09:59:52.974Z,18.25
2018-03-04T10:00:53.011Z,18.24
2018-03-04T10:01:52.983Z,18.27
2018-03-04T10:02:53.023Z,18.26
2018-03-04T10:03:53.006Z,18.27
2018-03-04T10:04:53.006Z,18.27
2018-03-04T10:05:52.995Z,18.27
2018-03-04T10:06:52.999Z,18.27
2018-03-04T10:07:53.028Z,18.28
2018-03-04T10:08:53.023Z,18.28
2018-03-04T10:09:53.005Z,18.28
2018-03-04T10:10:52.979Z,18.28
2018-03-04T10:11:52.988Z,18.31
2018-03-04T10:12:52.989Z,18.31
2018-03-04T10:13:53.002Z,18.32
2018-03-04T10:14:53.001Z,18.31
2018-03-04T10:15:52.977Z,18.32
2018-03-04T10:16:52.974Z,18.32
2018-03-04T10:17:52.979Z,18.33
2018-03-04T10:18:53.005Z,18.33
2018-03-04T10:19:52.998Z,18.35
2018-03-04T10:20:52.977Z,18.34
2018-03-04T10:21:53.012Z,18.34
2018-03-04T10:22:52.985Z,18.34
2018-03-04T10:23:52.969Z,18.35
2018-03-04T10:24:52.994Z,18.35
2018-03-04T10:25:52.989Z,18.35
2018-03-04T10:26:52.965Z,18.35
2018-03-04T10:27:52.982Z,18.37
2018-03-04T10:28:52.984Z,18.36
2018-03-04T10:29:53.022Z,18.49
2018-03-04T10:30:52.963Z,18.49
2018-03-04T10:31:52.969Z,18.43
2018-03-04T10:32:53.025Z,18.47
2018-03-04T10:33:52.976Z,18.42
2018-03-04T10:34:52.981Z,18.41
2018-03-04T10:35:52.991Z,18.37
2018-03-04T10:36:53.041Z,18.38
2018-03-04T10:37:53.030Z,18.47
2018-03-04T10:38:52.996Z,18.47
2018-03-04T10:39:52.974Z,18.45
2018-03-04T10:40:52.974Z,18.44
2018-03-04T10:41:52.981Z,18.45
2018-03-04T10:42:52.961Z,18.46
2018-03-04T10:43:52.963Z,18.48
2018-03-04T10:44:53.062Z,18.47
2018-03-04T10:45:52.984Z,18.47
2018-03-04T10:46:52.974Z,18.49
2018-03-04T10:47:30.423Z,18.72
2018-03-04T10:47:42.225Z,18.75
2018-03-04T10:48:42.173Z,18.69
2018-03-04T10:49:42.194Z,18.69
2018-03-04T10:50:42.183Z,18.67
2018-03-04T10:51:42.171Z,18.68
2018-03-04T10:52:42.164Z,18.69
2018-03-04T10:53:42.177Z,18.69
2018-03-04T10:54:42.175Z,18.7
2018-03-04T10:55:42.209Z,18.72
2018-03-04T10:56:42.172Z,18.74
2018-03-04T10:57:42.170Z,18.76
2018-03-04T10:58:42.178Z,18.77
2018-03-04T10:59:42.171Z,18.79
2018-03-04T11:00:42.187Z,18.8
2018-03-04T11:01:42.179Z,18.81
2018-03-04T11:02:42.195Z,18.82
2018-03-04T11:03:42.175Z,18.85
2018-03-04T11:04:42.165Z,18.87
2018-03-04T11:05:42.179Z,18.88
2018-03-04T11:06:42.172Z,18.9
2018-03-04T11:07:42.186Z,18.91
2018-03-04T11:08:42.170Z,18.93
2018-03-04T11:09:42.222Z,18.95
2018-03-04T11:10:42.173Z,18.97
2018-03-04T11:11:42.197Z,18.99
2018-03-04T11:12:42.170Z,19.01
2018-03-04T11:13:42.162Z,19.02
2018-03-04T11:14:42.189Z,19.04
2018-03-04T11:15:42.172Z,19.05
2018-03-04T11:16:42.166Z,19.06
2018-03-04T11:17:48.150Z,19.08
2018-03-04T11:18:48.137Z,19.1
2018-03-04T11:19:48.159Z,19.16
2018-03-04T11:20:48.136Z,19.15
2018-03-04T11:21:48.207Z,19.15
2018-03-04T11:22:48.137Z,19.17
2018-03-04T11:23:48.146Z,19.17
2018-03-04T11:24:44.386Z,19.2
2018-03-04T11:25:44.365Z,19.26
2018-03-04T11:26:44.400Z,19.27
2018-03-04T11:27:44.383Z,19.26
2018-03-04T11:28:44.434Z,19.27
2018-03-04T11:31:17.269Z,19.29
2018-03-04T11:32:16.959Z,19.08
2018-03-04T11:33:17.254Z,18.97
2018-03-04T11:34:16.972Z,18.9
2018-03-04T11:35:17.265Z,18.84
2018-03-04T11:36:16.965Z,18.79
2018-03-04T11:37:17.022Z,18.75
2018-03-04T11:38:17.633Z,18.73
2018-03-04T11:39:16.973Z,18.73
2018-03-04T11:40:17.270Z,18.72
2018-03-04T11:41:16.974Z,18.69
2018-03-04T11:42:17.020Z,18.72
2018-03-04T11:43:17.647Z,18.83
2018-03-04T11:44:16.986Z,18.83
2018-03-04T11:45:17.136Z,18.84
2018-03-04T11:46:17.268Z,18.82
2018-03-04T11:47:17.333Z,18.82
2018-03-04T11:48:17.321Z,18.81
2018-03-04T11:49:17.457Z,18.8
2018-03-04T11:50:16.985Z,18.81
2018-03-04T11:51:17.329Z,18.84
2018-03-04T11:52:17.414Z,18.82
2018-03-04T11:53:17.055Z,18.84
2018-03-04T11:54:16.992Z,18.83
2018-03-04T11:55:17.057Z,18.86
2018-03-04T11:56:17.079Z,18.86
2018-03-04T11:57:17.098Z,18.86
2018-03-04T11:58:17.134Z,18.9
2018-03-04T11:59:16.972Z,18.9
2018-03-04T12:00:17.043Z,18.91
2018-03-04T12:01:17.062Z,18.96
2018-03-04T12:02:16.999Z,18.94
2018-03-04T12:03:16.969Z,18.95
2018-03-04T12:04:16.998Z,18.99
2018-03-04T12:05:16.979Z,18.96
2018-03-04T12:06:16.976Z,18.96
2018-03-04T12:07:16.971Z,18.95
2018-03-04T12:08:16.992Z,18.94
2018-03-04T12:09:17.617Z,19.1
2018-03-04T12:10:16.976Z,19.13
2018-03-04T12:11:16.982Z,19.09
2018-03-04T12:12:16.962Z,19.07
2018-03-04T12:13:16.981Z,19.06
2018-03-04T12:14:16.982Z,19.05
2018-03-04T12:15:17.026Z,19.04
2018-03-04T12:16:17.065Z,19.02
2018-03-04T12:17:17.000Z,19.02
2018-03-04T12:18:16.985Z,19
2018-03-04T12:19:16.998Z,18.98
2018-03-04T12:20:16.972Z,18.97
2018-03-04T12:21:16.992Z,18.96
2018-03-04T12:22:16.985Z,18.96
2018-03-04T12:23:16.965Z,18.96
2018-03-04T12:24:16.955Z,18.94
2018-03-04T12:25:16.986Z,18.96
2018-03-04T12:26:17.025Z,19.01
2018-03-04T12:27:16.979Z,18.98
2018-03-04T12:28:16.972Z,19
2018-03-04T12:29:16.986Z,19.01
2018-03-04T12:30:16.963Z,19.04
2018-03-04T12:31:17.251Z,19.01
2018-03-04T12:32:16.960Z,19.01
2018-03-04T12:33:17.125Z,19.04
2018-03-04T12:34:16.976Z,19.01
2018-03-04T12:35:16.985Z,19
2018-03-04T12:36:17.003Z,19
2018-03-04T12:37:16.963Z,18.99
2018-03-04T12:38:17.008Z,18.98
2018-03-04T12:39:16.985Z,18.99
2018-03-04T12:40:16.956Z,19.01
2018-03-04T12:41:16.979Z,18.99
2018-03-04T12:42:16.990Z,18.98
2018-03-04T12:43:17.011Z,18.98
2018-03-04T12:44:16.978Z,18.98
2018-03-04T12:45:16.962Z,18.96
2018-03-04T12:46:16.982Z,18.95
2018-03-04T12:47:16.971Z,18.94
2018-03-04T12:48:16.952Z,18.93
2018-03-04T12:49:16.961Z,18.92
2018-03-04T12:50:16.962Z,18.91
2018-03-04T12:51:16.965Z,18.91
2018-03-04T12:52:17.004Z,18.89
2018-03-04T12:53:16.965Z,18.87
2018-03-04T12:54:16.947Z,18.88
2018-03-04T12:55:16.952Z,18.88
2018-03-04T12:56:16.956Z,18.85
2018-03-04T12:57:17.007Z,18.85